sensor_id;sensor_type;location;lat;lon;timestamp;temperature;humidity
16267;DHT22;8241;48.786;9.250;2023-02-28T00:00:19;0.30;91.90
16267;DHT22;8241;48.786;9.250;2023-02-28T00:02:49;0.20;92.10
16267;DHT22;8241;48.786;9.250;2023-02-28T00:05:18;0.20;92.10
16267;DHT22;8241;48.786;9.250;2023-02-28T00:07:46;0.20;92.30
16267;DHT22;8241;48.786;9.250;2023-02-28T00:10:15;0.20;92.30
16267;DHT22;8241;48.786;9.250;2023-02-28T00:12:44;0.10;92.40
16267;DHT22;8241;48.786;9.250;2023-02-28T00:15:11;0.10;92.40
16267;DHT22;8241;48.786;9.250;2023-02-28T00:17:38;0.20;92.40
16267;DHT22;8241;48.786;9.250;2023-02-28T00:20:09;0.10;92.30
16267;DHT22;8241;48.786;9.250;2023-02-28T00:22:38;0.10;92.60
16267;DHT22;8241;48.786;9.250;2023-02-28T00:25:08;0.10;92.60
16267;DHT22;8241;48.786;9.250;2023-02-28T00:27:35;0.00;92.70
16267;DHT22;8241;48.786;9.250;2023-02-28T00:30:05;0.00;92.80
16267;DHT22;8241;48.786;9.250;2023-02-28T00:32:33;0.00;93.00
16267;DHT22;8241;48.786;9.250;2023-02-28T00:35:00;0.00;92.80
16267;DHT22;8241;48.786;9.250;2023-02-28T00:37:29;0.00;93.00
16267;DHT22;8241;48.786;9.250;2023-02-28T00:39:56;0.00;92.90
16267;DHT22;8241;48.786;9.250;2023-02-28T00:42:23;0.00;93.00
16267;DHT22;8241;48.786;9.250;2023-02-28T00:44:50;0.00;92.90
16267;DHT22;8241;48.786;9.250;2023-02-28T00:47:17;-0.10;93.10
16267;DHT22;8241;48.786;9.250;2023-02-28T00:49:45;-0.10;93.00
16267;DHT22;8241;48.786;9.250;2023-02-28T00:52:12;-0.10;93.20
16267;DHT22;8241;48.786;9.250;2023-02-28T00:54:40;-0.10;93.20
16267;DHT22;8241;48.786;9.250;2023-02-28T00:57:07;-0.10;93.30
16267;DHT22;8241;48.786;9.250;2023-02-28T00:59:40;-0.20;93.40
16267;DHT22;8241;48.786;9.250;2023-02-28T01:02:07;-0.10;93.40
16267;DHT22;8241;48.786;9.250;2023-02-28T01:04:36;-0.20;93.60
16267;DHT22;8241;48.786;9.250;2023-02-28T01:07:05;-0.20;93.60
16267;DHT22;8241;48.786;9.250;2023-02-28T01:09:32;-0.20;93.60
16267;DHT22;8241;48.786;9.250;2023-02-28T01:12:02;-0.20;93.50
16267;DHT22;8241;48.786;9.250;2023-02-28T01:14:29;-0.20;93.80
16267;DHT22;8241;48.786;9.250;2023-02-28T01:16:56;-0.20;93.80
16267;DHT22;8241;48.786;9.250;2023-02-28T01:19:24;-0.20;93.90
16267;DHT22;8241;48.786;9.250;2023-02-28T01:21:53;-0.20;93.90
16267;DHT22;8241;48.786;9.250;2023-02-28T01:24:23;-0.20;94.00
16267;DHT22;8241;48.786;9.250;2023-02-28T01:26:51;-0.20;94.00
16267;DHT22;8241;48.786;9.250;2023-02-28T01:29:38;-0.20;94.10
16267;DHT22;8241;48.786;9.250;2023-02-28T01:32:08;-0.20;94.10
16267;DHT22;8241;48.786;9.250;2023-02-28T01:34:37;-0.20;94.10
16267;DHT22;8241;48.786;9.250;2023-02-28T01:37:04;-0.20;94.40
16267;DHT22;8241;48.786;9.250;2023-02-28T01:39:31;-0.20;94.30
16267;DHT22;8241;48.786;9.250;2023-02-28T01:41:58;-0.20;94.50
16267;DHT22;8241;48.786;9.250;2023-02-28T01:45:03;-0.30;94.70
16267;DHT22;8241;48.786;9.250;2023-02-28T01:47:33;-0.30;94.80
16267;DHT22;8241;48.786;9.250;2023-02-28T01:50:03;-0.30;94.60
16267;DHT22;8241;48.786;9.250;2023-02-28T01:52:30;-0.30;94.90
16267;DHT22;8241;48.786;9.250;2023-02-28T01:55:00;-0.40;94.90
16267;DHT22;8241;48.786;9.250;2023-02-28T01:57:32;-0.30;95.10
16267;DHT22;8241;48.786;9.250;2023-02-28T02:00:08;-0.30;95.10
16267;DHT22;8241;48.786;9.250;2023-02-28T02:02:39;-0.30;95.20
16267;DHT22;8241;48.786;9.250;2023-02-28T02:05:15;-0.30;95.20
16267;DHT22;8241;48.786;9.250;2023-02-28T02:07:43;-0.30;95.20
16267;DHT22;8241;48.786;9.250;2023-02-28T02:10:15;-0.30;95.30
16267;DHT22;8241;48.786;9.250;2023-02-28T02:13:00;-0.30;95.50
16267;DHT22;8241;48.786;9.250;2023-02-28T02:15:36;-0.30;95.50
16267;DHT22;8241;48.786;9.250;2023-02-28T02:18:14;-0.30;95.60
16267;DHT22;8241;48.786;9.250;2023-02-28T02:27:17;-0.30;95.70
16267;DHT22;8241;48.786;9.250;2023-02-28T02:30:21;-0.30;95.90
16267;DHT22;8241;48.786;9.250;2023-02-28T02:33:20;-0.30;96.00
16267;DHT22;8241;48.786;9.250;2023-02-28T02:35:54;-0.30;96.00
16267;DHT22;8241;48.786;9.250;2023-02-28T02:38:32;-0.20;96.10
16267;DHT22;8241;48.786;9.250;2023-02-28T02:41:07;-0.20;96.10
16267;DHT22;8241;48.786;9.250;2023-02-28T02:43:36;-0.20;96.20
16267;DHT22;8241;48.786;9.250;2023-02-28T02:46:10;-0.20;96.20
16267;DHT22;8241;48.786;9.250;2023-02-28T02:48:40;-0.20;96.40
16267;DHT22;8241;48.786;9.250;2023-02-28T02:51:14;-0.20;96.40
16267;DHT22;8241;48.786;9.250;2023-02-28T02:53:47;-0.10;96.50
16267;DHT22;8241;48.786;9.250;2023-02-28T02:56:18;-0.10;96.50
16267;DHT22;8241;48.786;9.250;2023-02-28T02:58:49;-0.10;96.60
16267;DHT22;8241;48.786;9.250;2023-02-28T03:01:24;0.00;96.60
16267;DHT22;8241;48.786;9.250;2023-02-28T03:03:57;-0.10;96.70
16267;DHT22;8241;48.786;9.250;2023-02-28T03:06:26;0.00;96.70
16267;DHT22;8241;48.786;9.250;2023-02-28T03:08:57;0.00;96.70
16267;DHT22;8241;48.786;9.250;2023-02-28T03:11:24;0.00;96.90
16267;DHT22;8241;48.786;9.250;2023-02-28T03:13:58;0.00;96.90
16267;DHT22;8241;48.786;9.250;2023-02-28T03:16:36;0.10;97.00
16267;DHT22;8241;48.786;9.250;2023-02-28T03:19:24;0.10;96.90
16267;DHT22;8241;48.786;9.250;2023-02-28T03:22:13;0.10;96.80
16267;DHT22;8241;48.786;9.250;2023-02-28T03:24:45;0.10;96.90
16267;DHT22;8241;48.786;9.250;2023-02-28T03:27:21;0.10;97.10
16267;DHT22;8241;48.786;9.250;2023-02-28T03:29:55;0.10;97.00
16267;DHT22;8241;48.786;9.250;2023-02-28T03:32:27;0.10;97.00
16267;DHT22;8241;48.786;9.250;2023-02-28T03:34:59;0.10;97.10
16267;DHT22;8241;48.786;9.250;2023-02-28T03:37:31;0.10;97.20
16267;DHT22;8241;48.786;9.250;2023-02-28T03:40:04;0.10;97.40
16267;DHT22;8241;48.786;9.250;2023-02-28T03:42:39;0.10;97.30
16267;DHT22;8241;48.786;9.250;2023-02-28T03:45:11;0.10;97.40
16267;DHT22;8241;48.786;9.250;2023-02-28T03:47:44;0.10;97.40
16267;DHT22;8241;48.786;9.250;2023-02-28T03:50:18;0.10;97.70
16267;DHT22;8241;48.786;9.250;2023-02-28T03:52:50;0.10;97.80
16267;DHT22;8241;48.786;9.250;2023-02-28T03:55:19;0.20;98.00
16267;DHT22;8241;48.786;9.250;2023-02-28T03:57:56;0.20;97.60
16267;DHT22;8241;48.786;9.250;2023-02-28T04:00:28;0.20;97.60
16267;DHT22;8241;48.786;9.250;2023-02-28T04:02:58;0.20;97.60
16267;DHT22;8241;48.786;9.250;2023-02-28T04:05:25;0.20;97.70
16267;DHT22;8241;48.786;9.250;2023-02-28T04:07:59;0.20;97.60
16267;DHT22;8241;48.786;9.250;2023-02-28T04:10:29;0.20;97.70
16267;DHT22;8241;48.786;9.250;2023-02-28T04:12:56;0.20;97.70
16267;DHT22;8241;48.786;9.250;2023-02-28T04:15:23;0.30;97.80
16267;DHT22;8241;48.786;9.250;2023-02-28T04:17:53;0.30;97.50
16267;DHT22;8241;48.786;9.250;2023-02-28T04:20:20;0.30;97.50
16267;DHT22;8241;48.786;9.250;2023-02-28T04:22:47;0.30;97.40
16267;DHT22;8241;48.786;9.250;2023-02-28T04:25:15;0.30;97.50
16267;DHT22;8241;48.786;9.250;2023-02-28T04:27:42;0.30;97.40
16267;DHT22;8241;48.786;9.250;2023-02-28T04:30:11;0.30;97.30
16267;DHT22;8241;48.786;9.250;2023-02-28T04:32:38;0.40;97.20
16267;DHT22;8241;48.786;9.250;2023-02-28T04:35:05;0.40;97.60
16267;DHT22;8241;48.786;9.250;2023-02-28T04:37:32;0.40;97.30
16267;DHT22;8241;48.786;9.250;2023-02-28T04:40:00;0.40;97.40
16267;DHT22;8241;48.786;9.250;2023-02-28T04:42:29;0.40;97.50
16267;DHT22;8241;48.786;9.250;2023-02-28T04:45:01;0.40;97.40
16267;DHT22;8241;48.786;9.250;2023-02-28T04:47:28;0.40;97.50
16267;DHT22;8241;48.786;9.250;2023-02-28T04:49:55;0.40;97.70
16267;DHT22;8241;48.786;9.250;2023-02-28T04:52:22;0.40;97.50
16267;DHT22;8241;48.786;9.250;2023-02-28T04:54:49;0.40;97.40
16267;DHT22;8241;48.786;9.250;2023-02-28T04:57:16;0.40;97.30
16267;DHT22;8241;48.786;9.250;2023-02-28T04:59:44;0.40;97.40
16267;DHT22;8241;48.786;9.250;2023-02-28T05:02:11;0.40;97.40
16267;DHT22;8241;48.786;9.250;2023-02-28T05:04:38;0.40;97.40
16267;DHT22;8241;48.786;9.250;2023-02-28T05:07:05;0.40;97.40
16267;DHT22;8241;48.786;9.250;2023-02-28T05:09:32;0.40;97.50
16267;DHT22;8241;48.786;9.250;2023-02-28T05:12:00;0.40;97.50
16267;DHT22;8241;48.786;9.250;2023-02-28T05:14:27;0.40;97.60
16267;DHT22;8241;48.786;9.250;2023-02-28T05:16:55;0.40;97.70
16267;DHT22;8241;48.786;9.250;2023-02-28T05:19:22;0.40;98.20
16267;DHT22;8241;48.786;9.250;2023-02-28T05:21:51;0.50;97.70
16267;DHT22;8241;48.786;9.250;2023-02-28T05:24:18;0.40;97.60
16267;DHT22;8241;48.786;9.250;2023-02-28T05:26:49;0.40;97.70
16267;DHT22;8241;48.786;9.250;2023-02-28T05:29:16;0.50;97.80
16267;DHT22;8241;48.786;9.250;2023-02-28T05:31:44;0.50;97.70
16267;DHT22;8241;48.786;9.250;2023-02-28T05:34:12;0.50;97.80
16267;DHT22;8241;48.786;9.250;2023-02-28T05:36:41;0.50;97.90
16267;DHT22;8241;48.786;9.250;2023-02-28T05:39:08;0.50;97.80
16267;DHT22;8241;48.786;9.250;2023-02-28T05:41:39;0.50;98.00
16267;DHT22;8241;48.786;9.250;2023-02-28T05:44:06;0.50;98.00
16267;DHT22;8241;48.786;9.250;2023-02-28T05:46:33;0.50;98.00
16267;DHT22;8241;48.786;9.250;2023-02-28T05:49:03;0.50;98.00
16267;DHT22;8241;48.786;9.250;2023-02-28T05:51:31;0.50;98.20
16267;DHT22;8241;48.786;9.250;2023-02-28T05:54:00;0.50;98.10
16267;DHT22;8241;48.786;9.250;2023-02-28T05:56:29;0.40;98.30
16267;DHT22;8241;48.786;9.250;2023-02-28T05:58:56;0.50;98.20
16267;DHT22;8241;48.786;9.250;2023-02-28T06:01:32;0.50;98.30
16267;DHT22;8241;48.786;9.250;2023-02-28T06:04:00;0.50;98.10
16267;DHT22;8241;48.786;9.250;2023-02-28T06:06:27;0.50;98.10
16267;DHT22;8241;48.786;9.250;2023-02-28T06:08:59;0.50;98.20
16267;DHT22;8241;48.786;9.250;2023-02-28T06:11:26;0.60;98.20
16267;DHT22;8241;48.786;9.250;2023-02-28T06:13:54;0.60;98.10
16267;DHT22;8241;48.786;9.250;2023-02-28T06:16:28;0.60;97.90
16267;DHT22;8241;48.786;9.250;2023-02-28T06:18:59;0.60;98.10
16267;DHT22;8241;48.786;9.250;2023-02-28T06:21:27;0.60;98.10
16267;DHT22;8241;48.786;9.250;2023-02-28T06:23:55;0.70;98.10
16267;DHT22;8241;48.786;9.250;2023-02-28T06:26:25;0.70;98.20
16267;DHT22;8241;48.786;9.250;2023-02-28T06:28:52;0.70;98.10
16267;DHT22;8241;48.786;9.250;2023-02-28T06:31:19;0.70;98.00
16267;DHT22;8241;48.786;9.250;2023-02-28T06:33:47;0.60;98.10
16267;DHT22;8241;48.786;9.250;2023-02-28T06:36:16;0.60;97.80
16267;DHT22;8241;48.786;9.250;2023-02-28T06:38:45;0.60;98.00
16267;DHT22;8241;48.786;9.250;2023-02-28T06:41:17;0.60;97.60
16267;DHT22;8241;48.786;9.250;2023-02-28T06:43:45;0.70;97.90
16267;DHT22;8241;48.786;9.250;2023-02-28T06:46:15;0.60;97.80
16267;DHT22;8241;48.786;9.250;2023-02-28T06:48:43;0.60;97.80
16267;DHT22;8241;48.786;9.250;2023-02-28T06:51:14;0.70;97.50
16267;DHT22;8241;48.786;9.250;2023-02-28T06:53:43;0.70;97.40
16267;DHT22;8241;48.786;9.250;2023-02-28T06:56:12;0.70;97.40
16267;DHT22;8241;48.786;9.250;2023-02-28T06:58:39;0.70;97.10
16267;DHT22;8241;48.786;9.250;2023-02-28T07:01:08;0.70;97.60
16267;DHT22;8241;48.786;9.250;2023-02-28T07:03:35;0.80;97.10
16267;DHT22;8241;48.786;9.250;2023-02-28T07:06:04;0.80;97.10
16267;DHT22;8241;48.786;9.250;2023-02-28T07:08:31;0.80;96.60
16267;DHT22;8241;48.786;9.250;2023-02-28T07:10:58;0.80;96.90
16267;DHT22;8241;48.786;9.250;2023-02-28T07:13:25;0.80;96.80
16267;DHT22;8241;48.786;9.250;2023-02-28T07:15:56;0.80;96.60
16267;DHT22;8241;48.786;9.250;2023-02-28T07:18:25;0.90;96.40
16267;DHT22;8241;48.786;9.250;2023-02-28T07:20:52;0.90;96.50
16267;DHT22;8241;48.786;9.250;2023-02-28T07:23:21;0.90;96.70
16267;DHT22;8241;48.786;9.250;2023-02-28T07:25:49;0.90;96.70
16267;DHT22;8241;48.786;9.250;2023-02-28T07:28:18;0.90;96.60
16267;DHT22;8241;48.786;9.250;2023-02-28T07:30:45;0.90;96.30
16267;DHT22;8241;48.786;9.250;2023-02-28T07:33:14;0.90;96.40
16267;DHT22;8241;48.786;9.250;2023-02-28T07:35:42;0.90;96.40
16267;DHT22;8241;48.786;9.250;2023-02-28T07:38:09;1.00;96.30
16267;DHT22;8241;48.786;9.250;2023-02-28T07:40:38;1.00;96.20
16267;DHT22;8241;48.786;9.250;2023-02-28T07:43:05;1.00;96.30
16267;DHT22;8241;48.786;9.250;2023-02-28T07:45:34;1.10;96.30
16267;DHT22;8241;48.786;9.250;2023-02-28T07:48:04;1.00;95.90
16267;DHT22;8241;48.786;9.250;2023-02-28T07:50:31;1.00;96.30
16267;DHT22;8241;48.786;9.250;2023-02-28T07:53:04;1.00;96.10
16267;DHT22;8241;48.786;9.250;2023-02-28T07:55:31;1.00;96.20
16267;DHT22;8241;48.786;9.250;2023-02-28T07:57:58;1.00;96.00
16267;DHT22;8241;48.786;9.250;2023-02-28T08:00:25;1.10;96.10
16267;DHT22;8241;48.786;9.250;2023-02-28T08:02:52;1.10;96.10
16267;DHT22;8241;48.786;9.250;2023-02-28T08:05:22;1.10;95.80
16267;DHT22;8241;48.786;9.250;2023-02-28T08:07:50;1.10;95.90
16267;DHT22;8241;48.786;9.250;2023-02-28T08:10:18;1.10;95.80
16267;DHT22;8241;48.786;9.250;2023-02-28T08:12:45;1.10;96.00
16267;DHT22;8241;48.786;9.250;2023-02-28T08:15:15;1.10;95.70
16267;DHT22;8241;48.786;9.250;2023-02-28T08:17:42;1.00;95.80
16267;DHT22;8241;48.786;9.250;2023-02-28T08:20:10;1.00;96.50
16267;DHT22;8241;48.786;9.250;2023-02-28T08:22:37;1.10;96.00
16267;DHT22;8241;48.786;9.250;2023-02-28T08:25:05;1.10;95.90
16267;DHT22;8241;48.786;9.250;2023-02-28T08:27:34;1.10;95.80
16267;DHT22;8241;48.786;9.250;2023-02-28T08:30:02;1.20;96.00
16267;DHT22;8241;48.786;9.250;2023-02-28T08:32:34;1.40;95.60
16267;DHT22;8241;48.786;9.250;2023-02-28T08:35:05;1.40;95.40
16267;DHT22;8241;48.786;9.250;2023-02-28T08:37:32;1.30;95.50
16267;DHT22;8241;48.786;9.250;2023-02-28T08:40:00;1.30;95.60
16267;DHT22;8241;48.786;9.250;2023-02-28T08:42:28;1.20;95.50
16267;DHT22;8241;48.786;9.250;2023-02-28T08:44:56;1.20;95.50
16267;DHT22;8241;48.786;9.250;2023-02-28T08:47:23;1.20;95.50
16267;DHT22;8241;48.786;9.250;2023-02-28T08:49:50;1.20;95.50
16267;DHT22;8241;48.786;9.250;2023-02-28T08:52:17;1.30;95.40
16267;DHT22;8241;48.786;9.250;2023-02-28T08:54:45;1.30;95.60
16267;DHT22;8241;48.786;9.250;2023-02-28T08:57:13;1.30;95.50
16267;DHT22;8241;48.786;9.250;2023-02-28T08:59:42;1.50;95.60
16267;DHT22;8241;48.786;9.250;2023-02-28T09:02:13;1.60;95.30
16267;DHT22;8241;48.786;9.250;2023-02-28T09:04:41;1.60;95.20
16267;DHT22;8241;48.786;9.250;2023-02-28T09:07:12;1.60;94.90
16267;DHT22;8241;48.786;9.250;2023-02-28T09:09:51;1.60;95.10
16267;DHT22;8241;48.786;9.250;2023-02-28T09:12:21;1.60;95.10
16267;DHT22;8241;48.786;9.250;2023-02-28T09:14:48;1.70;95.10
16267;DHT22;8241;48.786;9.250;2023-02-28T09:17:17;1.70;94.60
16267;DHT22;8241;48.786;9.250;2023-02-28T09:19:47;1.70;94.90
16267;DHT22;8241;48.786;9.250;2023-02-28T09:22:15;1.80;94.80
16267;DHT22;8241;48.786;9.250;2023-02-28T09:24:42;1.90;94.80
16267;DHT22;8241;48.786;9.250;2023-02-28T09:27:10;2.00;94.80
16267;DHT22;8241;48.786;9.250;2023-02-28T09:29:39;1.90;94.40
16267;DHT22;8241;48.786;9.250;2023-02-28T09:32:06;2.00;94.30
16267;DHT22;8241;48.786;9.250;2023-02-28T09:34:34;2.00;94.40
16267;DHT22;8241;48.786;9.250;2023-02-28T09:37:03;2.00;94.30
16267;DHT22;8241;48.786;9.250;2023-02-28T09:39:30;2.10;94.30
16267;DHT22;8241;48.786;9.250;2023-02-28T09:41:57;2.10;94.20
16267;DHT22;8241;48.786;9.250;2023-02-28T09:44:30;2.10;94.10
16267;DHT22;8241;48.786;9.250;2023-02-28T09:47:04;2.10;94.20
16267;DHT22;8241;48.786;9.250;2023-02-28T09:49:38;2.10;94.30
16267;DHT22;8241;48.786;9.250;2023-02-28T09:52:10;2.20;94.00
16267;DHT22;8241;48.786;9.250;2023-02-28T09:54:38;2.20;94.10
16267;DHT22;8241;48.786;9.250;2023-02-28T09:57:19;2.30;93.80
16267;DHT22;8241;48.786;9.250;2023-02-28T09:59:59;2.40;93.40
16267;DHT22;8241;48.786;9.250;2023-02-28T10:02:58;2.40;93.60
16267;DHT22;8241;48.786;9.250;2023-02-28T10:05:35;2.40;94.00
16267;DHT22;8241;48.786;9.250;2023-02-28T10:08:16;2.50;93.40
16267;DHT22;8241;48.786;9.250;2023-02-28T10:10:50;2.60;93.40
16267;DHT22;8241;48.786;9.250;2023-02-28T10:13:25;2.60;93.50
16267;DHT22;8241;48.786;9.250;2023-02-28T10:15:57;2.60;93.20
16267;DHT22;8241;48.786;9.250;2023-02-28T10:18:35;2.70;93.40
16267;DHT22;8241;48.786;9.250;2023-02-28T10:21:19;2.80;93.00
16267;DHT22;8241;48.786;9.250;2023-02-28T10:23:51;2.70;92.60
16267;DHT22;8241;48.786;9.250;2023-02-28T10:26:19;2.80;93.00
16267;DHT22;8241;48.786;9.250;2023-02-28T10:28:46;2.90;92.80
16267;DHT22;8241;48.786;9.250;2023-02-28T10:31:31;2.90;92.50
16267;DHT22;8241;48.786;9.250;2023-02-28T10:33:58;2.80;92.40
16267;DHT22;8241;48.786;9.250;2023-02-28T10:36:29;2.80;92.60
16267;DHT22;8241;48.786;9.250;2023-02-28T10:39:36;2.90;92.90
16267;DHT22;8241;48.786;9.250;2023-02-28T10:42:21;3.00;92.40
16267;DHT22;8241;48.786;9.250;2023-02-28T10:45:25;3.20;92.50
16267;DHT22;8241;48.786;9.250;2023-02-28T10:47:57;3.30;92.20
16267;DHT22;8241;48.786;9.250;2023-02-28T10:50:51;3.40;91.90
16267;DHT22;8241;48.786;9.250;2023-02-28T10:53:47;3.50;91.90
16267;DHT22;8241;48.786;9.250;2023-02-28T10:56:21;3.40;91.80
16267;DHT22;8241;48.786;9.250;2023-02-28T10:58:58;3.50;91.90
16267;DHT22;8241;48.786;9.250;2023-02-28T11:01:38;3.50;92.40
16267;DHT22;8241;48.786;9.250;2023-02-28T11:04:18;4.10;91.40
16267;DHT22;8241;48.786;9.250;2023-02-28T11:06:58;4.80;90.50
16267;DHT22;8241;48.786;9.250;2023-02-28T11:09:35;5.00;90.10
16267;DHT22;8241;48.786;9.250;2023-02-28T11:12:21;5.30;89.00
16267;DHT22;8241;48.786;9.250;2023-02-28T11:14:54;5.80;87.30
16267;DHT22;8241;48.786;9.250;2023-02-28T11:17:30;6.20;86.80
16267;DHT22;8241;48.786;9.250;2023-02-28T11:20:10;6.70;85.70
16267;DHT22;8241;48.786;9.250;2023-02-28T11:22:45;7.20;83.50
16267;DHT22;8241;48.786;9.250;2023-02-28T11:25:21;7.40;82.30
16267;DHT22;8241;48.786;9.250;2023-02-28T11:27:51;6.90;83.00
16267;DHT22;8241;48.786;9.250;2023-02-28T11:30:33;6.60;83.60
16267;DHT22;8241;48.786;9.250;2023-02-28T11:33:18;6.40;84.30
16267;DHT22;8241;48.786;9.250;2023-02-28T11:35:48;5.90;86.20
16267;DHT22;8241;48.786;9.250;2023-02-28T11:38:24;6.00;86.30
16267;DHT22;8241;48.786;9.250;2023-02-28T11:41:05;6.20;85.30
16267;DHT22;8241;48.786;9.250;2023-02-28T11:43:48;6.30;85.20
16267;DHT22;8241;48.786;9.250;2023-02-28T11:46:27;6.10;85.30
16267;DHT22;8241;48.786;9.250;2023-02-28T11:49:02;6.50;85.50
16267;DHT22;8241;48.786;9.250;2023-02-28T11:51:47;6.70;84.20
16267;DHT22;8241;48.786;9.250;2023-02-28T11:54:27;6.90;84.00
16267;DHT22;8241;48.786;9.250;2023-02-28T11:57:14;6.90;83.90
16267;DHT22;8241;48.786;9.250;2023-02-28T12:00:07;7.00;83.00
16267;DHT22;8241;48.786;9.250;2023-02-28T12:03:04;7.40;83.60
16267;DHT22;8241;48.786;9.250;2023-02-28T12:05:47;8.50;80.50
16267;DHT22;8241;48.786;9.250;2023-02-28T12:08:26;9.00;78.20
16267;DHT22;8241;48.786;9.250;2023-02-28T12:11:12;9.30;77.30
16267;DHT22;8241;48.786;9.250;2023-02-28T12:13:48;9.90;76.00
16267;DHT22;8241;48.786;9.250;2023-02-28T12:16:25;9.70;74.80
16267;DHT22;8241;48.786;9.250;2023-02-28T12:19:04;9.50;76.00
16267;DHT22;8241;48.786;9.250;2023-02-28T12:21:44;10.10;75.00
16267;DHT22;8241;48.786;9.250;2023-02-28T12:24:26;11.30;72.20
16267;DHT22;8241;48.786;9.250;2023-02-28T12:27:02;11.60;71.60
16267;DHT22;8241;48.786;9.250;2023-02-28T12:29:43;11.60;71.90
16267;DHT22;8241;48.786;9.250;2023-02-28T12:32:16;12.10;70.10
16267;DHT22;8241;48.786;9.250;2023-02-28T12:34:49;12.20;70.30
16267;DHT22;8241;48.786;9.250;2023-02-28T12:37:31;13.20;68.60
16267;DHT22;8241;48.786;9.250;2023-02-28T12:40:06;13.80;66.10
16267;DHT22;8241;48.786;9.250;2023-02-28T12:42:41;14.60;64.30
16267;DHT22;8241;48.786;9.250;2023-02-28T12:45:15;13.40;65.30
16267;DHT22;8241;48.786;9.250;2023-02-28T12:47:45;13.00;67.30
16267;DHT22;8241;48.786;9.250;2023-02-28T12:50:18;13.10;67.20
16267;DHT22;8241;48.786;9.250;2023-02-28T12:53:03;13.20;66.20
16267;DHT22;8241;48.786;9.250;2023-02-28T12:55:52;13.60;66.10
16267;DHT22;8241;48.786;9.250;2023-02-28T12:58:33;13.20;66.40
16267;DHT22;8241;48.786;9.250;2023-02-28T13:04:32;12.60;66.60
16267;DHT22;8241;48.786;9.250;2023-02-28T13:07:37;11.80;69.30
16267;DHT22;8241;48.786;9.250;2023-02-28T13:10:08;11.50;69.90
16267;DHT22;8241;48.786;9.250;2023-02-28T13:12:47;11.30;70.20
16267;DHT22;8241;48.786;9.250;2023-02-28T13:15:28;10.90;70.90
16267;DHT22;8241;48.786;9.250;2023-02-28T13:17:59;11.30;70.80
16267;DHT22;8241;48.786;9.250;2023-02-28T13:20:34;11.70;69.60
16267;DHT22;8241;48.786;9.250;2023-02-28T13:23:40;11.90;69.40
16267;DHT22;8241;48.786;9.250;2023-02-28T13:26:09;12.30;69.20
16267;DHT22;8241;48.786;9.250;2023-02-28T13:29:20;12.80;68.70
16267;DHT22;8241;48.786;9.250;2023-02-28T13:32:19;12.90;67.30
16267;DHT22;8241;48.786;9.250;2023-02-28T13:35:15;13.10;67.70
16267;DHT22;8241;48.786;9.250;2023-02-28T13:38:23;12.70;68.00
16267;DHT22;8241;48.786;9.250;2023-02-28T13:40:50;12.70;68.10
16267;DHT22;8241;48.786;9.250;2023-02-28T13:43:17;12.50;66.90
16267;DHT22;8241;48.786;9.250;2023-02-28T13:46:14;12.10;68.60
16267;DHT22;8241;48.786;9.250;2023-02-28T13:48:50;12.40;68.50
16267;DHT22;8241;48.786;9.250;2023-02-28T13:51:50;13.20;67.10
16267;DHT22;8241;48.786;9.250;2023-02-28T13:54:33;12.70;66.10
16267;DHT22;8241;48.786;9.250;2023-02-28T13:57:15;11.70;67.90
16267;DHT22;8241;48.786;9.250;2023-02-28T13:59:58;10.40;71.40
16267;DHT22;8241;48.786;9.250;2023-02-28T14:03:05;9.50;73.10
16267;DHT22;8241;48.786;9.250;2023-02-28T14:05:36;8.80;75.20
16267;DHT22;8241;48.786;9.250;2023-02-28T14:08:10;8.50;76.20
16267;DHT22;8241;48.786;9.250;2023-02-28T14:10:44;8.20;76.60
16267;DHT22;8241;48.786;9.250;2023-02-28T14:16:03;9.90;74.60
16267;DHT22;8241;48.786;9.250;2023-02-28T14:18:42;10.90;72.10
16267;DHT22;8241;48.786;9.250;2023-02-28T14:21:20;11.00;70.70
16267;DHT22;8241;48.786;9.250;2023-02-28T14:27:15;11.40;70.70
16267;DHT22;8241;48.786;9.250;2023-02-28T14:32:54;11.50;70.40
16267;DHT22;8241;48.786;9.250;2023-02-28T14:35:43;11.30;70.20
16267;DHT22;8241;48.786;9.250;2023-02-28T14:38:18;11.40;70.40
16267;DHT22;8241;48.786;9.250;2023-02-28T14:40:49;11.60;69.90
16267;DHT22;8241;48.786;9.250;2023-02-28T14:43:25;11.80;69.90
16267;DHT22;8241;48.786;9.250;2023-02-28T14:45:58;12.00;68.70
16267;DHT22;8241;48.786;9.250;2023-02-28T14:48:27;11.70;68.70
16267;DHT22;8241;48.786;9.250;2023-02-28T14:50:58;11.70;69.80
16267;DHT22;8241;48.786;9.250;2023-02-28T14:53:35;11.50;70.00
16267;DHT22;8241;48.786;9.250;2023-02-28T14:56:05;11.10;70.50
16267;DHT22;8241;48.786;9.250;2023-02-28T14:58:53;11.30;71.10
16267;DHT22;8241;48.786;9.250;2023-02-28T15:01:22;11.10;71.10
16267;DHT22;8241;48.786;9.250;2023-02-28T15:04:01;11.00;71.60
16267;DHT22;8241;48.786;9.250;2023-02-28T15:06:29;11.00;70.70
16267;DHT22;8241;48.786;9.250;2023-02-28T15:09:16;10.50;71.40
16267;DHT22;8241;48.786;9.250;2023-02-28T15:11:47;10.40;72.10
16267;DHT22;8241;48.786;9.250;2023-02-28T15:14:20;10.50;72.40
16267;DHT22;8241;48.786;9.250;2023-02-28T15:16:52;10.20;72.50
16267;DHT22;8241;48.786;9.250;2023-02-28T15:19:26;9.80;73.30
16267;DHT22;8241;48.786;9.250;2023-02-28T15:21:59;9.60;74.70
16267;DHT22;8241;48.786;9.250;2023-02-28T15:24:32;9.50;74.50
16267;DHT22;8241;48.786;9.250;2023-02-28T15:27:04;9.20;75.10
16267;DHT22;8241;48.786;9.250;2023-02-28T15:29:45;9.20;75.20
16267;DHT22;8241;48.786;9.250;2023-02-28T15:32:25;9.30;75.30
16267;DHT22;8241;48.786;9.250;2023-02-28T15:34:54;9.40;75.40
16267;DHT22;8241;48.786;9.250;2023-02-28T15:37:28;9.30;75.30
16267;DHT22;8241;48.786;9.250;2023-02-28T15:39:58;9.00;76.30
16267;DHT22;8241;48.786;9.250;2023-02-28T15:42:31;8.50;78.00
16267;DHT22;8241;48.786;9.250;2023-02-28T15:45:00;8.30;78.90
16267;DHT22;8241;48.786;9.250;2023-02-28T15:47:30;8.10;79.20
16267;DHT22;8241;48.786;9.250;2023-02-28T15:49:59;8.00;79.10
16267;DHT22;8241;48.786;9.250;2023-02-28T15:52:33;7.90;79.50
16267;DHT22;8241;48.786;9.250;2023-02-28T15:55:08;7.80;79.70
16267;DHT22;8241;48.786;9.250;2023-02-28T15:57:40;7.70;80.00
16267;DHT22;8241;48.786;9.250;2023-02-28T16:00:17;7.60;80.90
16267;DHT22;8241;48.786;9.250;2023-02-28T16:02:47;7.50;80.90
16267;DHT22;8241;48.786;9.250;2023-02-28T16:05:22;7.40;80.30
16267;DHT22;8241;48.786;9.250;2023-02-28T16:07:58;7.30;81.30
16267;DHT22;8241;48.786;9.250;2023-02-28T16:10:27;7.20;82.00
16267;DHT22;8241;48.786;9.250;2023-02-28T16:12:59;7.20;81.80
16267;DHT22;8241;48.786;9.250;2023-02-28T16:15:34;7.10;82.50
16267;DHT22;8241;48.786;9.250;2023-02-28T16:18:09;7.10;82.30
16267;DHT22;8241;48.786;9.250;2023-02-28T16:20:37;6.80;82.30
16267;DHT22;8241;48.786;9.250;2023-02-28T16:23:04;6.60;82.90
16267;DHT22;8241;48.786;9.250;2023-02-28T16:25:34;6.50;83.90
16267;DHT22;8241;48.786;9.250;2023-02-28T16:28:02;6.60;84.40
16267;DHT22;8241;48.786;9.250;2023-02-28T16:30:32;6.50;84.10
16267;DHT22;8241;48.786;9.250;2023-02-28T16:32:59;6.40;83.60
16267;DHT22;8241;48.786;9.250;2023-02-28T16:35:34;6.40;83.80
16267;DHT22;8241;48.786;9.250;2023-02-28T16:38:13;6.40;84.00
16267;DHT22;8241;48.786;9.250;2023-02-28T16:40:41;6.40;84.30
16267;DHT22;8241;48.786;9.250;2023-02-28T16:43:16;6.30;84.10
16267;DHT22;8241;48.786;9.250;2023-02-28T16:45:56;6.10;85.00
16267;DHT22;8241;48.786;9.250;2023-02-28T16:48:26;6.00;85.70
16267;DHT22;8241;48.786;9.250;2023-02-28T16:50:52;6.00;85.90
16267;DHT22;8241;48.786;9.250;2023-02-28T16:53:21;6.00;85.70